sensor_id;sensor_type;location;lat;lon;timestamp;temperature;humidity
51982;DHT22;37998;53.416;6.730;2023-06-22T00:02:23;18.20;99.90
51982;DHT22;37998;53.416;6.730;2023-06-22T00:04:49;18.10;99.90
51982;DHT22;37998;53.416;6.730;2023-06-22T00:07:15;18.10;99.90
51982;DHT22;37998;53.416;6.730;2023-06-22T00:09:41;18.10;99.90
51982;DHT22;37998;53.416;6.730;2023-06-22T00:12:07;18.00;99.90
51982;DHT22;37998;53.416;6.730;2023-06-22T00:14:33;18.10;99.90
51982;DHT22;37998;53.416;6.730;2023-06-22T00:16:59;18.10;99.90
51982;DHT22;37998;53.416;6.730;2023-06-22T00:19:25;18.10;99.90
51982;DHT22;37998;53.416;6.730;2023-06-22T00:21:51;18.10;99.90
51982;DHT22;37998;53.416;6.730;2023-06-22T00:24:20;18.20;99.90
51982;DHT22;37998;53.416;6.730;2023-06-22T00:26:48;18.20;99.90
51982;DHT22;37998;53.416;6.730;2023-06-22T00:29:14;18.20;99.90
51982;DHT22;37998;53.416;6.730;2023-06-22T00:31:40;18.30;99.90
51982;DHT22;37998;53.416;6.730;2023-06-22T00:34:06;18.30;99.90
51982;DHT22;37998;53.416;6.730;2023-06-22T00:36:35;18.20;99.90
51982;DHT22;37998;53.416;6.730;2023-06-22T00:39:05;18.20;99.90
51982;DHT22;37998;53.416;6.730;2023-06-22T00:41:33;18.20;99.90
51982;DHT22;37998;53.416;6.730;2023-06-22T00:43:59;18.20;99.90
51982;DHT22;37998;53.416;6.730;2023-06-22T00:46:25;18.20;99.90
51982;DHT22;37998;53.416;6.730;2023-06-22T00:49:01;18.20;99.90
51982;DHT22;37998;53.416;6.730;2023-06-22T00:51:27;18.10;99.90
51982;DHT22;37998;53.416;6.730;2023-06-22T00:53:54;18.20;99.90
51982;DHT22;37998;53.416;6.730;2023-06-22T00:56:20;18.20;99.90
51982;DHT22;37998;53.416;6.730;2023-06-22T00:58:50;18.20;99.90
51982;DHT22;37998;53.416;6.730;2023-06-22T01:01:18;18.20;99.90
51982;DHT22;37998;53.416;6.730;2023-06-22T01:03:48;18.20;99.90
51982;DHT22;37998;53.416;6.730;2023-06-22T01:06:22;18.20;99.90
51982;DHT22;37998;53.416;6.730;2023-06-22T01:09:02;18.20;99.90
51982;DHT22;37998;53.416;6.730;2023-06-22T01:11:38;18.20;99.90
51982;DHT22;37998;53.416;6.730;2023-06-22T01:14:15;18.10;99.90
51982;DHT22;37998;53.416;6.730;2023-06-22T01:16:44;18.10;99.90
51982;DHT22;37998;53.416;6.730;2023-06-22T01:21:53;18.10;99.90
51982;DHT22;37998;53.416;6.730;2023-06-22T01:24:33;18.10;99.90
51982;DHT22;37998;53.416;6.730;2023-06-22T01:27:32;18.10;99.90
51982;DHT22;37998;53.416;6.730;2023-06-22T01:30:02;18.00;99.90
51982;DHT22;37998;53.416;6.730;2023-06-22T01:32:33;18.00;99.90
51982;DHT22;37998;53.416;6.730;2023-06-22T01:35:01;18.00;99.90
51982;DHT22;37998;53.416;6.730;2023-06-22T01:37:31;18.00;99.90
51982;DHT22;37998;53.416;6.730;2023-06-22T01:39:58;18.00;99.90
51982;DHT22;37998;53.416;6.730;2023-06-22T01:42:27;17.90;99.90
51982;DHT22;37998;53.416;6.730;2023-06-22T01:44:54;17.90;99.90
51982;DHT22;37998;53.416;6.730;2023-06-22T01:47:22;17.90;99.90
51982;DHT22;37998;53.416;6.730;2023-06-22T01:49:48;17.80;99.90
51982;DHT22;37998;53.416;6.730;2023-06-22T01:52:15;17.70;99.90
51982;DHT22;37998;53.416;6.730;2023-06-22T01:54:41;17.70;99.90
51982;DHT22;37998;53.416;6.730;2023-06-22T01:57:07;17.70;99.90
51982;DHT22;37998;53.416;6.730;2023-06-22T02:00:00;17.50;99.90
51982;DHT22;37998;53.416;6.730;2023-06-22T02:05:12;17.10;99.90
51982;DHT22;37998;53.416;6.730;2023-06-22T02:07:56;17.00;99.90
51982;DHT22;37998;53.416;6.730;2023-06-22T02:10:26;17.00;99.90
51982;DHT22;37998;53.416;6.730;2023-06-22T02:12:57;17.10;99.90
51982;DHT22;37998;53.416;6.730;2023-06-22T02:15:23;17.10;99.90
51982;DHT22;37998;53.416;6.730;2023-06-22T02:17:53;17.10;99.90
51982;DHT22;37998;53.416;6.730;2023-06-22T02:20:19;17.00;99.90
51982;DHT22;37998;53.416;6.730;2023-06-22T02:22:49;17.00;99.90
51982;DHT22;37998;53.416;6.730;2023-06-22T02:25:18;17.10;99.90
51982;DHT22;37998;53.416;6.730;2023-06-22T02:27:45;17.10;99.90
51982;DHT22;37998;53.416;6.730;2023-06-22T02:30:12;17.20;99.90
51982;DHT22;37998;53.416;6.730;2023-06-22T02:32:42;17.30;99.90
51982;DHT22;37998;53.416;6.730;2023-06-22T02:35:08;17.30;99.90
51982;DHT22;37998;53.416;6.730;2023-06-22T02:37:39;17.30;99.90
51982;DHT22;37998;53.416;6.730;2023-06-22T02:40:10;17.30;99.90
51982;DHT22;37998;53.416;6.730;2023-06-22T02:42:39;17.30;99.90
51982;DHT22;37998;53.416;6.730;2023-06-22T02:45:05;17.30;99.90
51982;DHT22;37998;53.416;6.730;2023-06-22T02:47:34;17.40;99.90
51982;DHT22;37998;53.416;6.730;2023-06-22T02:50:00;17.30;99.90
51982;DHT22;37998;53.416;6.730;2023-06-22T02:52:27;17.20;99.90
51982;DHT22;37998;53.416;6.730;2023-06-22T02:54:52;17.00;99.90
51982;DHT22;37998;53.416;6.730;2023-06-22T02:57:21;16.90;99.90
51982;DHT22;37998;53.416;6.730;2023-06-22T02:59:47;16.80;99.90
51982;DHT22;37998;53.416;6.730;2023-06-22T03:02:13;16.80;99.90
51982;DHT22;37998;53.416;6.730;2023-06-22T03:04:41;16.70;99.90
51982;DHT22;37998;53.416;6.730;2023-06-22T03:07:08;16.70;99.90
51982;DHT22;37998;53.416;6.730;2023-06-22T03:09:34;16.80;99.90
51982;DHT22;37998;53.416;6.730;2023-06-22T03:12:03;16.80;99.90
51982;DHT22;37998;53.416;6.730;2023-06-22T03:14:43;17.20;99.90
51982;DHT22;37998;53.416;6.730;2023-06-22T03:17:09;16.90;99.90
51982;DHT22;37998;53.416;6.730;2023-06-22T03:19:36;17.00;99.90
51982;DHT22;37998;53.416;6.730;2023-06-22T03:22:02;17.00;99.90
51982;DHT22;37998;53.416;6.730;2023-06-22T03:24:31;17.10;99.90
51982;DHT22;37998;53.416;6.730;2023-06-22T03:26:57;17.00;99.90
51982;DHT22;37998;53.416;6.730;2023-06-22T03:29:23;17.10;99.90
51982;DHT22;37998;53.416;6.730;2023-06-22T03:31:51;17.10;99.90
51982;DHT22;37998;53.416;6.730;2023-06-22T03:34:17;17.20;99.90
51982;DHT22;37998;53.416;6.730;2023-06-22T03:36:43;17.20;99.90
51982;DHT22;37998;53.416;6.730;2023-06-22T03:39:11;17.30;99.90
51982;DHT22;37998;53.416;6.730;2023-06-22T03:41:37;17.30;99.90
51982;DHT22;37998;53.416;6.730;2023-06-22T03:44:03;17.30;99.90
51982;DHT22;37998;53.416;6.730;2023-06-22T03:46:29;17.30;99.90
51982;DHT22;37998;53.416;6.730;2023-06-22T03:48:55;17.30;99.90
51982;DHT22;37998;53.416;6.730;2023-06-22T03:51:21;17.40;99.90
51982;DHT22;37998;53.416;6.730;2023-06-22T03:53:46;17.40;99.90
51982;DHT22;37998;53.416;6.730;2023-06-22T03:56:13;17.40;99.90
51982;DHT22;37998;53.416;6.730;2023-06-22T03:58:45;17.40;99.90
51982;DHT22;37998;53.416;6.730;2023-06-22T04:01:11;17.30;99.90
51982;DHT22;37998;53.416;6.730;2023-06-22T04:03:38;17.20;99.90
51982;DHT22;37998;53.416;6.730;2023-06-22T04:06:04;17.20;99.90
51982;DHT22;37998;53.416;6.730;2023-06-22T04:08:30;17.10;99.90
51982;DHT22;37998;53.416;6.730;2023-06-22T04:10:56;17.10;99.90
51982;DHT22;37998;53.416;6.730;2023-06-22T04:13:22;17.00;99.90
51982;DHT22;37998;53.416;6.730;2023-06-22T04:15:48;17.00;99.90
51982;DHT22;37998;53.416;6.730;2023-06-22T04:18:14;17.00;99.90
51982;DHT22;37998;53.416;6.730;2023-06-22T04:20:40;16.90;99.90
51982;DHT22;37998;53.416;6.730;2023-06-22T04:23:06;16.90;99.90
51982;DHT22;37998;53.416;6.730;2023-06-22T04:25:32;16.90;99.90
51982;DHT22;37998;53.416;6.730;2023-06-22T04:27:58;16.90;99.90
51982;DHT22;37998;53.416;6.730;2023-06-22T04:30:24;16.90;99.90
51982;DHT22;37998;53.416;6.730;2023-06-22T04:32:49;16.90;99.90
51982;DHT22;37998;53.416;6.730;2023-06-22T04:35:22;17.00;99.90
51982;DHT22;37998;53.416;6.730;2023-06-22T04:37:52;17.00;99.90
51982;DHT22;37998;53.416;6.730;2023-06-22T04:40:23;17.00;99.90
51982;DHT22;37998;53.416;6.730;2023-06-22T04:42:52;17.10;99.90
51982;DHT22;37998;53.416;6.730;2023-06-22T04:45:20;17.30;99.90
51982;DHT22;37998;53.416;6.730;2023-06-22T04:47:47;17.40;99.90
51982;DHT22;37998;53.416;6.730;2023-06-22T04:50:14;17.50;99.90
51982;DHT22;37998;53.416;6.730;2023-06-22T04:52:40;17.60;99.90
51982;DHT22;37998;53.416;6.730;2023-06-22T04:55:06;17.70;99.90
51982;DHT22;37998;53.416;6.730;2023-06-22T04:57:32;17.80;99.90
51982;DHT22;37998;53.416;6.730;2023-06-22T05:00:00;17.80;99.90
51982;DHT22;37998;53.416;6.730;2023-06-22T05:02:38;17.80;99.90
51982;DHT22;37998;53.416;6.730;2023-06-22T05:05:05;17.80;99.90
51982;DHT22;37998;53.416;6.730;2023-06-22T05:07:33;17.90;99.90
51982;DHT22;37998;53.416;6.730;2023-06-22T05:10:03;18.00;99.90
51982;DHT22;37998;53.416;6.730;2023-06-22T05:12:29;18.10;99.90
51982;DHT22;37998;53.416;6.730;2023-06-22T05:14:56;18.20;99.90
51982;DHT22;37998;53.416;6.730;2023-06-22T05:17:22;18.30;99.90
51982;DHT22;37998;53.416;6.730;2023-06-22T05:19:48;18.50;99.90
51982;DHT22;37998;53.416;6.730;2023-06-22T05:22:15;18.50;99.90
51982;DHT22;37998;53.416;6.730;2023-06-22T05:24:44;18.60;99.90
51982;DHT22;37998;53.416;6.730;2023-06-22T05:27:10;18.60;99.90
51982;DHT22;37998;53.416;6.730;2023-06-22T05:29:37;18.70;99.90
51982;DHT22;37998;53.416;6.730;2023-06-22T05:32:03;18.80;99.90
51982;DHT22;37998;53.416;6.730;2023-06-22T05:34:32;18.80;99.90
51982;DHT22;37998;53.416;6.730;2023-06-22T05:36:58;18.90;99.90
51982;DHT22;37998;53.416;6.730;2023-06-22T05:39:24;19.00;99.90
51982;DHT22;37998;53.416;6.730;2023-06-22T05:41:51;19.10;99.90
51982;DHT22;37998;53.416;6.730;2023-06-22T05:44:18;19.20;99.90
51982;DHT22;37998;53.416;6.730;2023-06-22T05:46:45;19.30;99.90
51982;DHT22;37998;53.416;6.730;2023-06-22T05:49:15;19.30;99.90
51982;DHT22;37998;53.416;6.730;2023-06-22T05:51:42;19.40;99.90
51982;DHT22;37998;53.416;6.730;2023-06-22T05:54:08;19.40;99.90
51982;DHT22;37998;53.416;6.730;2023-06-22T05:56:34;19.50;99.90
51982;DHT22;37998;53.416;6.730;2023-06-22T05:59:00;19.50;99.90
51982;DHT22;37998;53.416;6.730;2023-06-22T06:01:26;19.60;99.90
51982;DHT22;37998;53.416;6.730;2023-06-22T06:03:52;19.60;99.90
51982;DHT22;37998;53.416;6.730;2023-06-22T06:06:18;19.70;99.90
51982;DHT22;37998;53.416;6.730;2023-06-22T06:08:46;19.70;99.90
51982;DHT22;37998;53.416;6.730;2023-06-22T06:11:12;19.80;99.90
51982;DHT22;37998;53.416;6.730;2023-06-22T06:13:38;19.80;99.90
51982;DHT22;37998;53.416;6.730;2023-06-22T06:16:07;19.90;99.90
51982;DHT22;37998;53.416;6.730;2023-06-22T06:18:33;19.90;99.90
51982;DHT22;37998;53.416;6.730;2023-06-22T06:20:59;19.90;99.90
51982;DHT22;37998;53.416;6.730;2023-06-22T06:23:25;20.00;99.90
51982;DHT22;37998;53.416;6.730;2023-06-22T06:25:51;20.00;99.90
51982;DHT22;37998;53.416;6.730;2023-06-22T06:28:17;20.10;99.90
51982;DHT22;37998;53.416;6.730;2023-06-22T06:30:43;20.20;99.90
51982;DHT22;37998;53.416;6.730;2023-06-22T06:33:11;20.20;99.90
51982;DHT22;37998;53.416;6.730;2023-06-22T06:35:37;20.20;99.90
51982;DHT22;37998;53.416;6.730;2023-06-22T06:38:03;20.20;99.90
51982;DHT22;37998;53.416;6.730;2023-06-22T06:40:29;20.30;99.90
51982;DHT22;37998;53.416;6.730;2023-06-22T06:42:55;20.30;99.90
51982;DHT22;37998;53.416;6.730;2023-06-22T06:45:23;20.40;99.90
51982;DHT22;37998;53.416;6.730;2023-06-22T06:47:50;20.50;99.90
51982;DHT22;37998;53.416;6.730;2023-06-22T06:50:16;20.50;99.90
51982;DHT22;37998;53.416;6.730;2023-06-22T06:52:42;20.60;99.90
51982;DHT22;37998;53.416;6.730;2023-06-22T06:55:09;20.60;99.90
51982;DHT22;37998;53.416;6.730;2023-06-22T06:57:38;20.70;99.90
51982;DHT22;37998;53.416;6.730;2023-06-22T07:00:09;20.80;99.90
51982;DHT22;37998;53.416;6.730;2023-06-22T07:02:43;21.00;99.90
51982;DHT22;37998;53.416;6.730;2023-06-22T07:05:12;21.10;99.90
51982;DHT22;37998;53.416;6.730;2023-06-22T07:07:38;21.10;99.90
51982;DHT22;37998;53.416;6.730;2023-06-22T07:10:07;21.20;99.90
51982;DHT22;37998;53.416;6.730;2023-06-22T07:12:34;21.20;99.90
51982;DHT22;37998;53.416;6.730;2023-06-22T07:15:07;21.30;99.90
51982;DHT22;37998;53.416;6.730;2023-06-22T07:17:34;21.40;99.90
51982;DHT22;37998;53.416;6.730;2023-06-22T07:20:01;21.50;99.90
51982;DHT22;37998;53.416;6.730;2023-06-22T07:22:27;21.50;99.90
51982;DHT22;37998;53.416;6.730;2023-06-22T07:24:53;21.60;99.90
51982;DHT22;37998;53.416;6.730;2023-06-22T07:27:19;21.70;99.90
51982;DHT22;37998;53.416;6.730;2023-06-22T07:29:46;21.80;99.90
51982;DHT22;37998;53.416;6.730;2023-06-22T07:32:14;21.80;99.90
51982;DHT22;37998;53.416;6.730;2023-06-22T07:34:40;21.90;99.90
51982;DHT22;37998;53.416;6.730;2023-06-22T07:37:07;22.00;99.90
51982;DHT22;37998;53.416;6.730;2023-06-22T07:39:32;22.10;99.90
51982;DHT22;37998;53.416;6.730;2023-06-22T07:41:58;22.20;99.90
51982;DHT22;37998;53.416;6.730;2023-06-22T07:44:24;22.20;99.90
51982;DHT22;37998;53.416;6.730;2023-06-22T07:46:50;22.20;99.90
51982;DHT22;37998;53.416;6.730;2023-06-22T07:49:17;22.20;99.90
51982;DHT22;37998;53.416;6.730;2023-06-22T07:51:43;22.10;99.90
51982;DHT22;37998;53.416;6.730;2023-06-22T07:54:09;22.10;99.90
51982;DHT22;37998;53.416;6.730;2023-06-22T07:56:36;22.10;99.90
51982;DHT22;37998;53.416;6.730;2023-06-22T07:59:03;22.20;99.90
51982;DHT22;37998;53.416;6.730;2023-06-22T08:01:29;22.30;99.90
51982;DHT22;37998;53.416;6.730;2023-06-22T08:03:55;22.40;99.90
51982;DHT22;37998;53.416;6.730;2023-06-22T08:06:21;22.50;99.90
51982;DHT22;37998;53.416;6.730;2023-06-22T08:08:47;22.70;99.90
51982;DHT22;37998;53.416;6.730;2023-06-22T08:11:14;22.70;99.90
51982;DHT22;37998;53.416;6.730;2023-06-22T08:13:40;22.90;99.90
51982;DHT22;37998;53.416;6.730;2023-06-22T08:16:06;23.00;99.90
51982;DHT22;37998;53.416;6.730;2023-06-22T08:18:33;23.20;99.90
51982;DHT22;37998;53.416;6.730;2023-06-22T08:20:59;23.50;99.90
51982;DHT22;37998;53.416;6.730;2023-06-22T08:23:25;23.60;99.90
51982;DHT22;37998;53.416;6.730;2023-06-22T08:25:51;23.80;99.90
51982;DHT22;37998;53.416;6.730;2023-06-22T08:28:17;23.90;99.90
51982;DHT22;37998;53.416;6.730;2023-06-22T08:30:43;24.00;99.90
51982;DHT22;37998;53.416;6.730;2023-06-22T08:33:09;23.80;99.90
51982;DHT22;37998;53.416;6.730;2023-06-22T08:35:34;23.60;99.90
51982;DHT22;37998;53.416;6.730;2023-06-22T08:38:03;23.50;99.90
51982;DHT22;37998;53.416;6.730;2023-06-22T08:40:29;23.40;99.90
51982;DHT22;37998;53.416;6.730;2023-06-22T08:42:55;23.40;99.90
51982;DHT22;37998;53.416;6.730;2023-06-22T08:45:22;23.40;99.90
51982;DHT22;37998;53.416;6.730;2023-06-22T08:47:48;23.50;99.90
51982;DHT22;37998;53.416;6.730;2023-06-22T08:50:14;23.60;99.90
51982;DHT22;37998;53.416;6.730;2023-06-22T08:52:40;23.70;99.90
51982;DHT22;37998;53.416;6.730;2023-06-22T08:55:07;23.70;99.90
51982;DHT22;37998;53.416;6.730;2023-06-22T08:57:34;23.60;99.90
51982;DHT22;37998;53.416;6.730;2023-06-22T09:00:04;23.60;99.90
51982;DHT22;37998;53.416;6.730;2023-06-22T09:02:31;23.60;99.90
51982;DHT22;37998;53.416;6.730;2023-06-22T09:04:58;23.50;99.90
51982;DHT22;37998;53.416;6.730;2023-06-22T09:07:26;23.50;99.90
51982;DHT22;37998;53.416;6.730;2023-06-22T09:09:53;23.50;99.90
51982;DHT22;37998;53.416;6.730;2023-06-22T09:12:19;23.50;99.90
51982;DHT22;37998;53.416;6.730;2023-06-22T09:14:48;23.60;99.90
51982;DHT22;37998;53.416;6.730;2023-06-22T09:17:14;23.60;99.90
51982;DHT22;37998;53.416;6.730;2023-06-22T09:19:42;23.70;99.90
51982;DHT22;37998;53.416;6.730;2023-06-22T09:22:08;23.90;99.90
51982;DHT22;37998;53.416;6.730;2023-06-22T09:24:34;24.10;99.90
51982;DHT22;37998;53.416;6.730;2023-06-22T09:27:00;24.00;99.90
51982;DHT22;37998;53.416;6.730;2023-06-22T09:29:26;24.00;99.90
51982;DHT22;37998;53.416;6.730;2023-06-22T09:31:52;24.00;99.90
51982;DHT22;37998;53.416;6.730;2023-06-22T09:34:20;24.00;99.90
51982;DHT22;37998;53.416;6.730;2023-06-22T09:36:48;24.00;99.90
51982;DHT22;37998;53.416;6.730;2023-06-22T09:39:16;23.90;99.90
51982;DHT22;37998;53.416;6.730;2023-06-22T09:41:42;23.90;99.90
51982;DHT22;37998;53.416;6.730;2023-06-22T09:44:08;23.90;99.90
51982;DHT22;37998;53.416;6.730;2023-06-22T09:46:34;24.00;99.90
51982;DHT22;37998;53.416;6.730;2023-06-22T09:49:00;23.90;99.90
51982;DHT22;37998;53.416;6.730;2023-06-22T09:51:26;24.00;99.90
51982;DHT22;37998;53.416;6.730;2023-06-22T09:53:52;24.00;99.90
51982;DHT22;37998;53.416;6.730;2023-06-22T09:56:22;24.00;99.90
51982;DHT22;37998;53.416;6.730;2023-06-22T09:58:48;23.90;99.90
51982;DHT22;37998;53.416;6.730;2023-06-22T10:01:18;23.90;99.90
51982;DHT22;37998;53.416;6.730;2023-06-22T10:03:44;23.90;99.90
51982;DHT22;37998;53.416;6.730;2023-06-22T10:06:10;24.00;99.90
51982;DHT22;37998;53.416;6.730;2023-06-22T10:08:36;24.10;99.90
51982;DHT22;37998;53.416;6.730;2023-06-22T10:11:05;24.10;99.90
51982;DHT22;37998;53.416;6.730;2023-06-22T10:13:31;24.20;99.90
51982;DHT22;37998;53.416;6.730;2023-06-22T10:15:57;24.20;99.90
51982;DHT22;37998;53.416;6.730;2023-06-22T10:18:23;24.30;99.90
51982;DHT22;37998;53.416;6.730;2023-06-22T10:20:50;24.30;99.90
51982;DHT22;37998;53.416;6.730;2023-06-22T10:23:20;24.30;99.90
51982;DHT22;37998;53.416;6.730;2023-06-22T10:25:46;24.30;99.90
51982;DHT22;37998;53.416;6.730;2023-06-22T10:28:14;24.20;99.90
51982;DHT22;37998;53.416;6.730;2023-06-22T10:30:41;24.30;99.90
51982;DHT22;37998;53.416;6.730;2023-06-22T10:33:12;24.30;99.90
51982;DHT22;37998;53.416;6.730;2023-06-22T10:35:38;24.30;99.90
51982;DHT22;37998;53.416;6.730;2023-06-22T10:38:05;24.20;99.90
51982;DHT22;37998;53.416;6.730;2023-06-22T10:40:31;24.20;99.90
51982;DHT22;37998;53.416;6.730;2023-06-22T10:42:57;24.20;99.90
51982;DHT22;37998;53.416;6.730;2023-06-22T10:45:23;24.30;99.90
51982;DHT22;37998;53.416;6.730;2023-06-22T10:47:48;24.20;99.90
51982;DHT22;37998;53.416;6.730;2023-06-22T10:50:15;24.20;99.90
51982;DHT22;37998;53.416;6.730;2023-06-22T10:52:41;24.10;99.90
51982;DHT22;37998;53.416;6.730;2023-06-22T10:55:10;24.10;99.90
51982;DHT22;37998;53.416;6.730;2023-06-22T10:57:36;24.10;99.90
51982;DHT22;37998;53.416;6.730;2023-06-22T11:00:03;24.10;99.90
51982;DHT22;37998;53.416;6.730;2023-06-22T11:02:31;24.20;99.90
51982;DHT22;37998;53.416;6.730;2023-06-22T11:04:57;24.20;99.80
51982;DHT22;37998;53.416;6.730;2023-06-22T11:07:26;24.30;99.70
51982;DHT22;37998;53.416;6.730;2023-06-22T11:09:56;24.40;99.90
51982;DHT22;37998;53.416;6.730;2023-06-22T11:12:22;24.40;99.50
51982;DHT22;37998;53.416;6.730;2023-06-22T11:14:51;24.40;99.30
51982;DHT22;37998;53.416;6.730;2023-06-22T11:17:17;24.50;99.70
51982;DHT22;37998;53.416;6.730;2023-06-22T11:19:45;24.60;99.50
51982;DHT22;37998;53.416;6.730;2023-06-22T11:22:11;24.60;99.40
51982;DHT22;37998;53.416;6.730;2023-06-22T11:24:36;24.50;99.20
51982;DHT22;37998;53.416;6.730;2023-06-22T11:27:02;24.40;99.30
51982;DHT22;37998;53.416;6.730;2023-06-22T11:29:28;24.40;99.10
51982;DHT22;37998;53.416;6.730;2023-06-22T11:31:54;24.50;99.30
51982;DHT22;37998;53.416;6.730;2023-06-22T11:34:20;24.30;98.90
51982;DHT22;37998;53.416;6.730;2023-06-22T11:36:46;24.40;99.00
51982;DHT22;37998;53.416;6.730;2023-06-22T11:39:13;24.50;99.00
51982;DHT22;37998;53.416;6.730;2023-06-22T11:41:41;24.40;98.80
51982;DHT22;37998;53.416;6.730;2023-06-22T11:44:07;24.30;99.10
51982;DHT22;37998;53.416;6.730;2023-06-22T11:46:33;24.30;98.90
51982;DHT22;37998;53.416;6.730;2023-06-22T11:49:01;24.30;98.80
51982;DHT22;37998;53.416;6.730;2023-06-22T11:51:27;24.30;98.70
51982;DHT22;37998;53.416;6.730;2023-06-22T11:53:53;24.40;99.10
51982;DHT22;37998;53.416;6.730;2023-06-22T11:56:22;24.50;98.60
51982;DHT22;37998;53.416;6.730;2023-06-22T11:58:48;24.30;98.40
51982;DHT22;37998;53.416;6.730;2023-06-22T12:01:17;24.20;98.20
51982;DHT22;37998;53.416;6.730;2023-06-22T12:03:43;24.00;98.50
51982;DHT22;37998;53.416;6.730;2023-06-22T12:06:09;24.00;98.70
51982;DHT22;37998;53.416;6.730;2023-06-22T12:08:35;24.10;99.00
51982;DHT22;37998;53.416;6.730;2023-06-22T12:11:01;24.20;98.50
51982;DHT22;37998;53.416;6.730;2023-06-22T12:13:27;24.10;97.80
51982;DHT22;37998;53.416;6.730;2023-06-22T12:15:53;24.10;97.20
51982;DHT22;37998;53.416;6.730;2023-06-22T12:18:19;24.10;97.60
51982;DHT22;37998;53.416;6.730;2023-06-22T12:20:47;24.10;98.00
51982;DHT22;37998;53.416;6.730;2023-06-22T12:23:14;24.10;98.40
51982;DHT22;37998;53.416;6.730;2023-06-22T12:25:40;24.00;98.10
51982;DHT22;37998;53.416;6.730;2023-06-22T12:28:09;24.00;98.20
51982;DHT22;37998;53.416;6.730;2023-06-22T12:30:35;23.90;98.40
51982;DHT22;37998;53.416;6.730;2023-06-22T12:33:00;23.80;98.00
51982;DHT22;37998;53.416;6.730;2023-06-22T12:35:26;23.80;97.90
51982;DHT22;37998;53.416;6.730;2023-06-22T12:37:52;23.70;98.00
51982;DHT22;37998;53.416;6.730;2023-06-22T12:40:18;23.70;98.10
51982;DHT22;37998;53.416;6.730;2023-06-22T12:42:45;23.50;98.10
51982;DHT22;37998;53.416;6.730;2023-06-22T12:45:11;23.40;98.50
51982;DHT22;37998;53.416;6.730;2023-06-22T12:47:37;23.30;98.30
51982;DHT22;37998;53.416;6.730;2023-06-22T12:50:03;23.20;98.50
51982;DHT22;37998;53.416;6.730;2023-06-22T12:52:32;23.20;98.60
51982;DHT22;37998;53.416;6.730;2023-06-22T12:55:01;23.30;99.00
51982;DHT22;37998;53.416;6.730;2023-06-22T12:57:27;23.30;99.20
51982;DHT22;37998;53.416;6.730;2023-06-22T12:59:53;23.10;99.00
51982;DHT22;37998;53.416;6.730;2023-06-22T13:02:19;23.00;99.10
51982;DHT22;37998;53.416;6.730;2023-06-22T13:04:45;22.90;99.50
51982;DHT22;37998;53.416;6.730;2023-06-22T13:07:11;22.90;99.70
51982;DHT22;37998;53.416;6.730;2023-06-22T13:09:37;22.90;99.90
51982;DHT22;37998;53.416;6.730;2023-06-22T13:12:04;22.90;99.90
51982;DHT22;37998;53.416;6.730;2023-06-22T13:14:30;22.90;99.90
51982;DHT22;37998;53.416;6.730;2023-06-22T13:16:59;22.90;99.90
51982;DHT22;37998;53.416;6.730;2023-06-22T13:19:25;22.90;99.90
51982;DHT22;37998;53.416;6.730;2023-06-22T13:21:54;22.80;99.90
51982;DHT22;37998;53.416;6.730;2023-06-22T13:24:20;22.90;99.90
51982;DHT22;37998;53.416;6.730;2023-06-22T13:26:46;22.90;99.90
51982;DHT22;37998;53.416;6.730;2023-06-22T13:29:12;22.90;99.90
51982;DHT22;37998;53.416;6.730;2023-06-22T13:31:38;22.90;99.90
51982;DHT22;37998;53.416;6.730;2023-06-22T13:34:04;23.00;99.60
51982;DHT22;37998;53.416;6.730;2023-06-22T13:36:30;23.00;99.40
51982;DHT22;37998;53.416;6.730;2023-06-22T13:38:56;23.00;99.10
51982;DHT22;37998;53.416;6.730;2023-06-22T13:41:22;22.90;98.50
51982;DHT22;37998;53.416;6.730;2023-06-22T13:43:48;22.90;98.60
51982;DHT22;37998;53.416;6.730;2023-06-22T13:46:14;22.80;98.30
51982;DHT22;37998;53.416;6.730;2023-06-22T13:48:40;22.80;98.50
51982;DHT22;37998;53.416;6.730;2023-06-22T13:51:09;22.90;99.00
51982;DHT22;37998;53.416;6.730;2023-06-22T13:53:35;22.80;98.70
51982;DHT22;37998;53.416;6.730;2023-06-22T13:56:01;22.70;98.80
51982;DHT22;37998;53.416;6.730;2023-06-22T13:58:26;22.60;98.90
51982;DHT22;37998;53.416;6.730;2023-06-22T14:00:52;22.70;99.10
51982;DHT22;37998;53.416;6.730;2023-06-22T14:03:18;22.70;99.00
51982;DHT22;37998;53.416;6.730;2023-06-22T14:05:44;22.60;98.50
51982;DHT22;37998;53.416;6.730;2023-06-22T14:08:11;22.60;98.50
51982;DHT22;37998;53.416;6.730;2023-06-22T14:10:37;22.50;98.40
51982;DHT22;37998;53.416;6.730;2023-06-22T14:13:03;22.50;98.30
51982;DHT22;37998;53.416;6.730;2023-06-22T14:15:32;22.50;98.10
51982;DHT22;37998;53.416;6.730;2023-06-22T14:17:57;22.60;98.30
51982;DHT22;37998;53.416;6.730;2023-06-22T14:20:23;22.50;98.80
51982;DHT22;37998;53.416;6.730;2023-06-22T14:22:49;22.40;98.30
51982;DHT22;37998;53.416;6.730;2023-06-22T14:25:15;22.40;98.40
51982;DHT22;37998;53.416;6.730;2023-06-22T14:27:41;22.30;98.70
51982;DHT22;37998;53.416;6.730;2023-06-22T14:30:07;22.30;99.00
51982;DHT22;37998;53.416;6.730;2023-06-22T14:32:33;22.40;99.00
51982;DHT22;37998;53.416;6.730;2023-06-22T14:34:59;22.30;98.40
51982;DHT22;37998;53.416;6.730;2023-06-22T14:37:25;22.30;98.50
51982;DHT22;37998;53.416;6.730;2023-06-22T14:39:51;22.30;98.70
51982;DHT22;37998;53.416;6.730;2023-06-22T14:42:17;22.20;98.70
51982;DHT22;37998;53.416;6.730;2023-06-22T14:44:43;22.20;98.90
51982;DHT22;37998;53.416;6.730;2023-06-22T14:47:12;22.10;99.10
51982;DHT22;37998;53.416;6.730;2023-06-22T14:49:38;22.10;98.40
51982;DHT22;37998;53.416;6.730;2023-06-22T14:52:04;22.10;98.20
51982;DHT22;37998;53.416;6.730;2023-06-22T14:54:31;22.10;98.20
51982;DHT22;37998;53.416;6.730;2023-06-22T14:56:57;22.10;98.40
51982;DHT22;37998;53.416;6.730;2023-06-22T14:59:26;22.10;98.10
51982;DHT22;37998;53.416;6.730;2023-06-22T15:01:52;22.10;98.40
51982;DHT22;37998;53.416;6.730;2023-06-22T15:04:18;22.00;98.70
51982;DHT22;37998;53.416;6.730;2023-06-22T15:06:44;22.40;98.90
51982;DHT22;37998;53.416;6.730;2023-06-22T15:09:10;22.00;98.80
51982;DHT22;37998;53.416;6.730;2023-06-22T15:11:36;22.00;98.70
51982;DHT22;37998;53.416;6.730;2023-06-22T15:14:02;22.00;98.40
51982;DHT22;37998;53.416;6.730;2023-06-22T15:16:28;22.10;98.40
51982;DHT22;37998;53.416;6.730;2023-06-22T15:18:54;22.10;98.40
51982;DHT22;37998;53.416;6.730;2023-06-22T15:21:23;22.20;98.30
51982;DHT22;37998;53.416;6.730;2023-06-22T15:23:52;22.20;98.80
51982;DHT22;37998;53.416;6.730;2023-06-22T15:26:18;22.10;98.60
51982;DHT22;37998;53.416;6.730;2023-06-22T15:28:44;22.10;98.70
51982;DHT22;37998;53.416;6.730;2023-06-22T15:31:10;22.10;98.70
51982;DHT22;37998;53.416;6.730;2023-06-22T15:33:36;22.10;98.60
51982;DHT22;37998;53.416;6.730;2023-06-22T15:36:03;22.10;98.80